createdAt,value
2019-01-29T00:01:33.540Z,0.10
2019-01-29T00:04:21.125Z,0.00
2019-01-29T00:07:09.377Z,-0.10
2019-01-29T00:09:57.033Z,-0.20
2019-01-29T00:12:44.723Z,-0.30
2019-01-29T00:15:32.414Z,-0.40
2019-01-29T00:18:19.978Z,-0.50
2019-01-29T00:21:07.228Z,-0.60
2019-01-29T00:23:54.812Z,-0.60
2019-01-29T00:26:42.691Z,-0.50
2019-01-29T00:29:30.654Z,-0.40
2019-01-29T00:32:18.130Z,-0.30
2019-01-29T00:35:06.050Z,-0.40
2019-01-29T00:37:53.601Z,-0.40
2019-01-29T00:40:40.720Z,-0.40
2019-01-29T00:43:27.868Z,-0.30
2019-01-29T00:46:15.453Z,-0.30
2019-01-29T00:49:02.750Z,-0.20
2019-01-29T00:51:50.500Z,-0.10
2019-01-29T00:54:38.054Z,0.00
2019-01-29T00:57:25.746Z,0.20
2019-01-29T01:00:16.056Z,0.30
2019-01-29T01:03:04.974Z,0.40
2019-01-29T01:05:52.788Z,0.40
2019-01-29T01:08:40.517Z,0.40
2019-01-29T01:11:28.213Z,0.50
2019-01-29T01:14:15.850Z,0.50
2019-01-29T01:17:03.759Z,0.60
2019-01-29T01:19:52.364Z,0.60
2019-01-29T01:22:40.121Z,0.70
2019-01-29T01:25:27.855Z,0.70
2019-01-29T01:28:15.862Z,0.60
2019-01-29T01:31:03.683Z,0.60
2019-01-29T01:33:51.340Z,0.60
2019-01-29T01:36:58.185Z,0.60
2019-01-29T01:39:46.061Z,0.70
2019-01-29T01:42:33.969Z,0.70
2019-01-29T01:45:21.440Z,0.70
2019-01-29T01:48:08.570Z,0.70
2019-01-29T01:50:56.095Z,0.80
2019-01-29T01:53:43.410Z,0.80
2019-01-29T01:56:30.758Z,0.80
2019-01-29T01:59:18.231Z,0.80
2019-01-29T02:02:06.178Z,0.80
2019-01-29T02:04:53.589Z,0.80
2019-01-29T02:07:41.336Z,0.90
2019-01-29T02:10:30.484Z,0.80
2019-01-29T02:13:18.183Z,0.80
2019-01-29T02:16:06.015Z,0.80
2019-01-29T02:18:53.988Z,0.80
2019-01-29T02:21:41.586Z,0.80
2019-01-29T02:24:28.943Z,0.80
2019-01-29T02:27:16.318Z,0.80
2019-01-29T02:30:04.314Z,0.90
2019-01-29T02:32:52.159Z,0.80
2019-01-29T02:35:39.842Z,0.80
2019-01-29T02:38:27.290Z,0.80
2019-01-29T02:41:14.809Z,0.80
2019-01-29T02:44:02.779Z,0.80
2019-01-29T02:46:50.064Z,0.80
2019-01-29T02:49:37.172Z,0.80
2019-01-29T02:52:24.508Z,0.80
2019-01-29T02:55:12.720Z,0.80
2019-01-29T02:58:00.918Z,0.80
2019-01-29T03:00:48.319Z,0.80
2019-01-29T03:03:35.864Z,0.70
2019-01-29T03:06:23.783Z,0.80
2019-01-29T03:09:11.680Z,0.80
2019-01-29T03:11:59.480Z,0.80
2019-01-29T03:14:47.118Z,0.80
2019-01-29T03:17:34.513Z,0.70
2019-01-29T03:20:21.916Z,0.70
2019-01-29T03:23:09.215Z,0.70
2019-01-29T03:25:57.106Z,0.70
2019-01-29T03:28:45.002Z,0.70
2019-01-29T03:31:32.745Z,0.70
2019-01-29T03:34:20.128Z,0.70
2019-01-29T03:37:07.725Z,0.70
2019-01-29T03:39:55.390Z,0.80
2019-01-29T03:42:42.735Z,0.80
2019-01-29T03:45:30.930Z,0.80
2019-01-29T03:48:18.338Z,0.70
2019-01-29T03:51:05.770Z,0.70
2019-01-29T03:53:53.256Z,0.70
2019-01-29T03:56:40.560Z,0.70
2019-01-29T03:59:28.003Z,0.70
2019-01-29T04:02:15.923Z,0.70
2019-01-29T04:05:05.298Z,0.70
2019-01-29T04:07:52.900Z,0.70
2019-01-29T04:10:40.925Z,0.80
2019-01-29T04:13:28.522Z,0.70
2019-01-29T04:16:16.094Z,0.70
2019-01-29T04:19:03.622Z,0.70
2019-01-29T04:22:24.106Z,0.80
2019-01-29T04:26:01.397Z,0.80
2019-01-29T04:29:08.477Z,0.80
2019-01-29T04:32:03.252Z,0.70
2019-01-29T04:35:02.582Z,0.80
2019-01-29T04:37:54.829Z,0.80
2019-01-29T04:40:45.441Z,0.80
2019-01-29T04:43:39.919Z,0.80
2019-01-29T04:46:39.867Z,0.80
2019-01-29T04:49:27.702Z,0.80
2019-01-29T04:52:28.855Z,0.80
2019-01-29T04:55:20.551Z,0.80
2019-01-29T04:58:12.770Z,0.90
2019-01-29T05:01:19.694Z,0.90
2019-01-29T05:04:35.663Z,0.90
2019-01-29T05:07:27.481Z,0.80
2019-01-29T05:10:35.592Z,0.80
2019-01-29T05:13:37.412Z,0.80
2019-01-29T05:16:28.517Z,0.80
2019-01-29T05:19:29.432Z,0.80
2019-01-29T05:22:43.607Z,0.80
2019-01-29T05:25:57.006Z,0.70
2019-01-29T05:28:45.626Z,0.70
2019-01-29T05:35:33.027Z,0.80
2019-01-29T05:38:42.096Z,0.80
2019-01-29T05:41:43.451Z,0.70
2019-01-29T05:44:32.069Z,0.70
2019-01-29T05:47:19.649Z,0.70
2019-01-29T05:50:27.872Z,0.70
2019-01-29T05:53:15.545Z,0.70
2019-01-29T05:56:03.689Z,0.70
2019-01-29T05:58:52.371Z,0.70
2019-01-29T06:01:52.896Z,0.60
2019-01-29T06:04:57.831Z,0.70
2019-01-29T06:08:14.437Z,0.70
2019-01-29T06:14:51.742Z,0.60
2019-01-29T06:20:50.364Z,0.50
2019-01-29T06:23:49.830Z,0.50
2019-01-29T06:26:37.938Z,0.50
2019-01-29T06:29:32.115Z,0.50
2019-01-29T06:32:22.089Z,0.60
2019-01-29T06:35:11.846Z,0.50
2019-01-29T06:38:00.383Z,0.60
2019-01-29T06:40:58.204Z,0.60
2019-01-29T06:43:56.236Z,0.60
2019-01-29T06:46:50.544Z,0.70
2019-01-29T06:49:42.763Z,0.70
2019-01-29T06:52:31.116Z,0.70
2019-01-29T06:55:26.085Z,0.60
2019-01-29T06:58:10.263Z,0.70
2019-01-29T07:00:58.173Z,0.60
2019-01-29T07:03:55.272Z,0.70
2019-01-29T07:06:43.203Z,0.70
2019-01-29T07:10:01.215Z,0.70
2019-01-29T07:16:14.525Z,0.70
2019-01-29T07:19:18.937Z,0.70
2019-01-29T07:22:07.412Z,0.70
2019-01-29T07:24:55.224Z,0.70
2019-01-29T07:27:44.107Z,0.60
2019-01-29T07:30:42.584Z,0.70
2019-01-29T07:33:57.454Z,0.80
2019-01-29T07:36:58.600Z,0.80
2019-01-29T07:39:46.922Z,0.80
2019-01-29T07:42:52.375Z,0.90
2019-01-29T07:45:40.446Z,1.00
2019-01-29T07:48:28.720Z,1.00
2019-01-29T07:51:16.416Z,1.10
2019-01-29T07:54:17.103Z,1.00
2019-01-29T07:57:05.706Z,1.10
2019-01-29T07:59:53.527Z,1.10
2019-01-29T08:02:48.071Z,1.10
2019-01-29T08:06:20.230Z,1.10
2019-01-29T08:09:10.519Z,1.10
2019-01-29T08:12:06.913Z,1.20
2019-01-29T08:14:54.831Z,1.20
2019-01-29T08:17:43.404Z,1.20
2019-01-29T08:20:45.938Z,1.30
2019-01-29T08:23:33.577Z,1.30
2019-01-29T08:26:36.462Z,1.40
2019-01-29T08:29:54.250Z,1.40
2019-01-29T08:32:42.535Z,1.40
2019-01-29T08:35:33.532Z,1.40
2019-01-29T08:38:21.208Z,1.50
2019-01-29T08:41:08.857Z,1.50
2019-01-29T08:43:56.627Z,1.50
2019-01-29T08:46:44.967Z,1.60
2019-01-29T08:49:42.118Z,1.60
2019-01-29T08:52:29.767Z,1.70
2019-01-29T08:55:17.603Z,1.70
2019-01-29T08:58:05.541Z,1.80
2019-01-29T09:00:53.411Z,1.80
2019-01-29T09:03:44.927Z,1.80
2019-01-29T09:06:32.780Z,1.80
2019-01-29T09:09:20.734Z,1.80
2019-01-29T09:12:09.986Z,1.80
2019-01-29T09:15:01.176Z,1.80
2019-01-29T09:18:11.394Z,1.90
2019-01-29T09:21:01.276Z,1.90
2019-01-29T09:23:57.746Z,1.90
2019-01-29T09:26:45.916Z,2.00
2019-01-29T09:29:42.452Z,2.00
2019-01-29T09:32:30.441Z,2.00
2019-01-29T09:38:54.921Z,2.10
2019-01-29T09:41:49.159Z,2.00
2019-01-29T09:44:37.097Z,2.10
2019-01-29T09:47:52.778Z,2.30
2019-01-29T09:50:40.662Z,2.20
2019-01-29T09:56:43.709Z,2.40
2019-01-29T09:59:54.738Z,2.40
2019-01-29T10:02:49.992Z,2.50
2019-01-29T10:05:41.758Z,2.80
2019-01-29T10:08:56.746Z,2.80
2019-01-29T10:12:10.526Z,2.80
2019-01-29T10:14:58.420Z,3.10
2019-01-29T10:17:47.538Z,3.10
2019-01-29T10:20:35.258Z,3.10
2019-01-29T10:23:44.199Z,3.00
2019-01-29T10:26:52.707Z,2.90
2019-01-29T10:36:21.124Z,3.50
2019-01-29T10:39:26.446Z,3.70
2019-01-29T10:42:56.852Z,3.70
2019-01-29T10:45:46.649Z,4.10
2019-01-29T10:48:45.884Z,4.50
2019-01-29T10:52:16.458Z,4.40
2019-01-29T10:55:12.999Z,4.00
2019-01-29T10:58:37.626Z,4.00
2019-01-29T11:01:52.755Z,4.70
2019-01-29T11:04:56.490Z,5.30
2019-01-29T11:07:57.391Z,5.40
2019-01-29T11:10:48.882Z,5.40
2019-01-29T11:13:56.636Z,4.90
2019-01-29T11:16:46.826Z,4.80
2019-01-29T11:19:59.900Z,4.60
2019-01-29T11:22:48.206Z,4.10
2019-01-29T11:26:00.438Z,3.80
2019-01-29T11:28:54.462Z,3.90
2019-01-29T11:31:43.180Z,3.70
2019-01-29T11:34:33.203Z,3.50
2019-01-29T11:37:39.959Z,3.80
2019-01-29T11:40:28.686Z,4.00
2019-01-29T11:46:49.228Z,3.90
2019-01-29T11:49:51.918Z,3.60
2019-01-29T11:52:47.323Z,3.70
2019-01-29T11:55:45.144Z,4.00
2019-01-29T11:59:08.270Z,4.00
2019-01-29T12:01:47.827Z,4.00
2019-01-29T12:04:35.795Z,4.00
2019-01-29T12:07:56.102Z,3.80
2019-01-29T12:10:39.718Z,4.10
2019-01-29T12:13:44.621Z,3.90
2019-01-29T12:16:32.408Z,4.20
2019-01-29T12:23:31.008Z,5.00
2019-01-29T12:26:19.318Z,5.50
2019-01-29T12:29:33.361Z,6.00
2019-01-29T12:32:21.398Z,6.60
2019-01-29T12:35:09.941Z,6.50
2019-01-29T12:37:58.059Z,6.30
2019-01-29T12:40:46.320Z,5.90
2019-01-29T12:43:33.779Z,6.00
2019-01-29T12:46:21.510Z,6.10
2019-01-29T12:49:09.562Z,5.80
2019-01-29T12:52:13.120Z,5.40
2019-01-29T12:55:00.766Z,5.20
2019-01-29T12:57:48.304Z,5.00
2019-01-29T13:00:42.823Z,4.80
2019-01-29T13:03:30.656Z,4.60
2019-01-29T13:06:24.580Z,4.80
2019-01-29T13:09:18.246Z,4.80
2019-01-29T13:12:09.264Z,5.00
2019-01-29T13:15:00.181Z,4.90
2019-01-29T13:17:47.520Z,5.10
2019-01-29T13:20:43.089Z,5.20
2019-01-29T13:23:40.035Z,5.20
2019-01-29T13:26:37.888Z,5.40
2019-01-29T13:29:29.645Z,5.50
2019-01-29T13:32:33.040Z,5.10
2019-01-29T13:35:24.989Z,4.70
2019-01-29T13:38:26.223Z,5.00
2019-01-29T13:41:26.239Z,5.10
2019-01-29T13:44:15.425Z,5.00
2019-01-29T13:47:03.350Z,5.10
2019-01-29T13:50:33.571Z,5.30
2019-01-29T13:53:25.676Z,5.30
2019-01-29T13:56:18.920Z,5.40
2019-01-29T13:59:18.493Z,5.30
2019-01-29T14:02:09.383Z,5.20
2019-01-29T14:04:56.874Z,5.30
2019-01-29T14:07:44.139Z,5.40
2019-01-29T14:10:31.578Z,5.70
2019-01-29T14:13:18.713Z,6.10
2019-01-29T14:16:12.054Z,6.50
2019-01-29T14:18:59.611Z,6.80
2019-01-29T14:21:46.964Z,6.20
2019-01-29T14:24:34.554Z,6.00
2019-01-29T14:27:22.118Z,6.20
2019-01-29T14:30:13.331Z,6.30
2019-01-29T14:33:01.141Z,5.80
2019-01-29T14:35:48.671Z,5.50
2019-01-29T14:39:20.267Z,5.40
2019-01-29T14:42:07.676Z,5.60
2019-01-29T14:44:56.239Z,5.60
2019-01-29T14:47:43.924Z,5.50
2019-01-29T14:50:32.461Z,5.30
2019-01-29T14:53:20.353Z,5.20
2019-01-29T14:56:08.170Z,5.00
2019-01-29T14:58:55.709Z,5.00
2019-01-29T15:01:58.141Z,4.90
2019-01-29T15:04:57.848Z,4.70
2019-01-29T15:07:55.910Z,4.60
2019-01-29T15:11:05.056Z,4.60
2019-01-29T15:13:54.227Z,4.60
2019-01-29T15:17:10.940Z,4.50
2019-01-29T15:19:58.620Z,4.60
2019-01-29T15:22:46.216Z,4.60
2019-01-29T15:25:33.963Z,4.40
2019-01-29T15:28:21.519Z,4.40
2019-01-29T15:31:08.804Z,4.30
2019-01-29T15:33:56.020Z,4.30
2019-01-29T15:36:44.233Z,4.00
2019-01-29T15:39:32.792Z,3.80
2019-01-29T15:42:21.171Z,3.60
2019-01-29T15:45:15.676Z,3.50
2019-01-29T15:48:04.378Z,3.20
2019-01-29T15:50:53.784Z,3.10
2019-01-29T15:53:41.883Z,2.90
2019-01-29T15:56:30.305Z,2.80
2019-01-29T15:59:18.900Z,2.70
2019-01-29T16:02:07.121Z,2.60
2019-01-29T16:04:55.735Z,2.60
2019-01-29T16:07:43.593Z,2.40
2019-01-29T16:10:39.479Z,2.20
2019-01-29T16:13:24.334Z,2.10
2019-01-29T16:16:12.477Z,1.80
2019-01-29T16:19:00.997Z,1.70
2019-01-29T16:21:49.183Z,1.60
2019-01-29T16:24:37.096Z,1.40
2019-01-29T16:27:24.364Z,1.30
2019-01-29T16:30:26.812Z,1.20
2019-01-29T16:33:14.506Z,1.10
2019-01-29T16:36:02.882Z,1.00
2019-01-29T16:38:51.186Z,0.90
2019-01-29T16:41:39.082Z,0.80
2019-01-29T16:44:27.194Z,0.70
2019-01-29T16:47:14.905Z,0.60
2019-01-29T16:50:02.873Z,0.60
2019-01-29T16:52:51.054Z,0.50
2019-01-29T16:55:38.543Z,0.50
2019-01-29T16:58:26.253Z,0.50
2019-01-29T17:01:14.572Z,0.40
2019-01-29T17:04:02.241Z,0.40
2019-01-29T17:06:49.956Z,0.40
2019-01-29T17:09:37.904Z,0.40
2019-01-29T17:12:26.152Z,0.40
2019-01-29T17:15:17.919Z,0.40
2019-01-29T17:18:07.097Z,0.40
2019-01-29T17:20:54.882Z,0.40
2019-01-29T17:23:42.300Z,0.30
2019-01-29T17:26:31.035Z,0.30
2019-01-29T17:29:19.066Z,0.20
2019-01-29T17:32:07.208Z,0.20
2019-01-29T17:34:55.716Z,0.10
2019-01-29T17:37:43.869Z,0.10
2019-01-29T17:40:31.904Z,0.00
2019-01-29T17:43:19.814Z,0.00
2019-01-29T17:46:07.785Z,-0.10
2019-01-29T17:48:56.382Z,-0.20
2019-01-29T17:51:44.874Z,-0.30
2019-01-29T17:54:34.268Z,-0.30
2019-01-29T17:57:22.158Z,-0.40
2019-01-29T18:00:18.528Z,-0.50
2019-01-29T18:03:08.492Z,-0.60
2019-01-29T18:05:58.274Z,-0.70
2019-01-29T18:08:49.880Z,-0.70
2019-01-29T18:11:49.516Z,-0.80
2019-01-29T18:14:39.276Z,-0.90
2019-01-29T18:17:42.076Z,-0.90
2019-01-29T18:20:32.256Z,-0.90
2019-01-29T18:23:26.142Z,-0.80
2019-01-29T18:26:27.788Z,-0.90
2019-01-29T18:29:24.421Z,-0.90
2019-01-29T18:32:20.134Z,-1.00
2019-01-29T18:35:26.614Z,-1.10
2019-01-29T18:38:16.600Z,-1.10
2019-01-29T18:41:08.436Z,-1.30
2019-01-29T18:43:58.112Z,-1.40
2019-01-29T18:46:47.796Z,-1.70
2019-01-29T18:49:38.286Z,-1.70
2019-01-29T18:52:27.991Z,-1.70
2019-01-29T18:55:22.350Z,-1.70
2019-01-29T18:58:18.056Z,-1.70
2019-01-29T19:01:08.688Z,-1.80
2019-01-29T19:04:03.059Z,-1.80
2019-01-29T19:06:53.348Z,-1.80
2019-01-29T19:09:44.163Z,-1.60
2019-01-29T19:12:35.160Z,-1.50
2019-01-29T19:15:25.813Z,-1.40
2019-01-29T19:18:16.382Z,-1.30
2019-01-29T19:21:10.975Z,-1.30
2019-01-29T19:24:02.899Z,-1.60
2019-01-29T19:27:03.236Z,-1.70
2019-01-29T19:29:54.257Z,-1.80
2019-01-29T19:32:45.659Z,-1.70
2019-01-29T19:35:40.237Z,-1.70
2019-01-29T19:38:36.981Z,-1.50
2019-01-29T19:41:27.989Z,-1.40
2019-01-29T19:44:26.801Z,-1.40
2019-01-29T19:47:18.118Z,-1.30
2019-01-29T19:50:19.906Z,-1.30
2019-01-29T19:53:14.559Z,-1.40
2019-01-29T19:56:10.700Z,-1.50
2019-01-29T19:59:07.938Z,-1.40
2019-01-29T20:01:58.844Z,-1.40
2019-01-29T20:04:50.269Z,-1.30
2019-01-29T20:07:42.945Z,-1.30
2019-01-29T20:10:34.451Z,-1.40
2019-01-29T20:13:27.899Z,-1.40
2019-01-29T20:16:21.987Z,-1.40
2019-01-29T20:19:13.312Z,-1.40
2019-01-29T20:22:02.636Z,-1.30
2019-01-29T20:24:51.942Z,-1.30
2019-01-29T20:27:41.311Z,-1.30
2019-01-29T20:30:32.336Z,-1.40
2019-01-29T20:33:26.750Z,-1.50
2019-01-29T20:36:23.364Z,-1.50
2019-01-29T20:39:21.318Z,-1.60
2019-01-29T20:42:09.565Z,-1.80
2019-01-29T20:45:03.975Z,-2.00
2019-01-29T20:48:05.103Z,-2.30
2019-01-29T20:50:59.569Z,-2.30
2019-01-29T20:53:54.396Z,-2.20
2019-01-29T20:56:55.142Z,-2.30
2019-01-29T20:59:45.706Z,-2.40
2019-01-29T21:02:38.479Z,-2.30
2019-01-29T21:05:26.412Z,-2.10
2019-01-29T21:08:14.677Z,-2.10
2019-01-29T21:11:11.606Z,-2.20
2019-01-29T21:14:00.485Z,-2.10
2019-01-29T21:16:48.788Z,-2.20
2019-01-29T21:19:36.860Z,-2.20
2019-01-29T21:22:26.647Z,-2.30
2019-01-29T21:25:15.914Z,-2.40
2019-01-29T21:28:06.608Z,-2.40
2019-01-29T21:30:55.163Z,-2.30
2019-01-29T21:33:43.193Z,-2.30
2019-01-29T21:36:32.154Z,-2.30
2019-01-29T21:42:07.628Z,-2.60
2019-01-29T21:44:57.296Z,-2.40
2019-01-29T21:47:50.337Z,-2.40
2019-01-29T21:50:39.673Z,-2.40
2019-01-29T21:53:27.169Z,-2.40
2019-01-29T21:56:14.540Z,-2.40
2019-01-29T21:59:01.895Z,-2.30
2019-01-29T22:01:49.398Z,-2.40
2019-01-29T22:04:36.924Z,-2.40
2019-01-29T22:07:24.418Z,-2.50
2019-01-29T22:10:27.410Z,-2.30
2019-01-29T22:13:29.986Z,-2.40
2019-01-29T22:20:42.290Z,-2.40
2019-01-29T22:23:42.073Z,-2.40
2019-01-29T22:26:35.430Z,-2.40
2019-01-29T22:30:11.127Z,-2.40
2019-01-29T22:51:44.604Z,-1.50
2019-01-29T22:54:38.121Z,-1.50
2019-01-29T22:57:38.263Z,-1.70
2019-01-29T23:01:07.085Z,-1.60
2019-01-29T23:04:37.948Z,-1.50
2019-01-29T23:07:47.571Z,-1.40
2019-01-29T23:10:48.770Z,-1.40
2019-01-29T23:14:13.505Z,-1.30
2019-01-29T23:16:53.045Z,-1.40
2019-01-29T23:19:47.483Z,-1.30
2019-01-29T23:22:45.752Z,-1.30
2019-01-29T23:25:41.712Z,-1.30
2019-01-29T23:32:06.256Z,-1.30
2019-01-29T23:34:54.688Z,-1.30
2019-01-29T23:37:48.131Z,-1.20
2019-01-29T23:40:57.792Z,-1.10
2019-01-29T23:44:15.682Z,-1.00
2019-01-29T23:47:06.924Z,-1.00
2019-01-29T23:49:55.051Z,-1.00
2019-01-29T23:56:47.532Z,-1.20
